CWH4 weather

Winchester District Memorial Hospital Heliport
Ottawa, Ontario, Canada

Public forecast

Using degrees Celsius for public forecast. Weather courtesy of forecast.io.

Closest aviation weather report (METAR) to Winchester District Memorial Hospital Heliport

Closest report is Ottawa Macdonald-Cartier International Airport, 19.4 nm (35.9 km) NW. Retrieved 2020/06/03 14:11 UTC (47 minutes ago):

CYOW 031411Z VRB02KT 8SM OVC007 14/13 A2960 RMK SC8 SLP025 DENSITY ALT 800FT

Closest aviation forecast (TAF) to Winchester District Memorial Hospital Heliport

Closest forecast is Ottawa Macdonald-Cartier International Airport, 19.4 nm (35.9 km) NW. Retrieved 2020/06/03 15:45 UTC (0 seconds ago):

TAF TAF CYOW 031442Z 0315/0412 VRB03KT 6SM -RA BR OVC007 TEMPO 0315/0316 P6SM NSW OVC015 FM031600 VRB03KT P6SM SCT009 OVC030 TEMPO 0316/0318 P6SM -RA BKN009 OVC030 FM031800 32006KT P6SM SCT015 BKN030 TEMPO 0318/0321 P6SM -SHRA BKN015 OVC030 FM032100 32012KT P6SM BKN030 BKN070 TEMPO 0321/0401 P6SM -SHRA FM040100 32005KT P6SM FEW020 BKN070 FM040300 VRB03KT P6SM FEW020 PROB30 0405/0409 1/2SM FG VV002 FM040900 27005KT 6SM BR SCT020 BKN060 PROB30 0409/0411 1SM BR RMK NXT FCST BY 031800Z